UAL388 KEWR-TBPB
Flight info
| Callsign | UAL388 |
|---|---|
| Flight time | N/A |
| Altitude | 37000 |
| Route | ELVAE DCT NECCK DCT DIXIE Y481 KINGG/M081F370 DCT KINER L461 BOVIC/M081F390 L461 OPAUL/N0465F390 L461 YIYYO DCT LAMKN/N0474F400 DCT ANU/N0470F390 UA632 BGI |
| Aircraft | B77W/H-SDE1E2E3FGHIJ2J3J4J5M1RWXY/LB1D1 |
Departure
| Time | N/A |
|---|---|
| Airport | Newark Liberty International Airport (KEWR) |
Arrival
| Time | 2026-05-06 20:21 |
|---|---|
| Airport | Grantley Adams International Airport (TBPB) |
| Time | Latitude | Longitude | Altitude | Speed | Heading |
|---|---|---|---|---|---|
| 2026-05-06 19:41 | 16.84592 | -61.63646 | 39074 ft | 499 kts | 155° |
| 2026-05-06 19:41 | 16.81561 | -61.61880 | 39069 ft | 499 kts | 155° |
| 2026-05-06 19:42 | 16.75494 | -61.58350 | 39066 ft | 499 kts | 155° |
| 2026-05-06 19:42 | 16.69424 | -61.54819 | 39063 ft | 499 kts | 155° |
| 2026-05-06 19:43 | 16.63347 | -61.51284 | 39052 ft | 500 kts | 155° |
| 2026-05-06 19:43 | 16.57274 | -61.47754 | 39058 ft | 500 kts | 155° |
| 2026-05-06 19:44 | 16.51197 | -61.44225 | 39058 ft | 500 kts | 155° |
| 2026-05-06 19:44 | 16.45115 | -61.40694 | 39055 ft | 500 kts | 155° |
| 2026-05-06 19:45 | 16.39071 | -61.37189 | 39058 ft | 500 kts | 155° |
| 2026-05-06 19:45 | 16.32977 | -61.33658 | 39055 ft | 501 kts | 155° |
| 2026-05-06 19:46 | 16.26887 | -61.30131 | 39039 ft | 501 kts | 155° |
| 2026-05-06 19:46 | 16.20793 | -61.26604 | 39053 ft | 501 kts | 155° |
| 2026-05-06 19:47 | 16.14694 | -61.23076 | 39056 ft | 502 kts | 155° |
| 2026-05-06 19:47 | 16.08589 | -61.19548 | 39061 ft | 502 kts | 155° |
| 2026-05-06 19:48 | 16.02480 | -61.16021 | 39047 ft | 502 kts | 155° |
| 2026-05-06 19:48 | 15.96369 | -61.12494 | 39045 ft | 502 kts | 155° |
| 2026-05-06 19:49 | 15.90258 | -61.08970 | 39046 ft | 502 kts | 155° |
| 2026-05-06 19:49 | 15.84147 | -61.05448 | 39048 ft | 502 kts | 155° |
| 2026-05-06 19:50 | 15.79066 | -61.02522 | 39049 ft | 502 kts | 155° |
| 2026-05-06 19:50 | 15.71963 | -60.98434 | 39045 ft | 502 kts | 155° |
| 2026-05-06 19:51 | 15.66852 | -60.95495 | 39049 ft | 502 kts | 155° |
| 2026-05-06 19:51 | 15.60747 | -60.91986 | 39035 ft | 502 kts | 155° |
| 2026-05-06 19:52 | 15.54639 | -60.88479 | 39048 ft | 502 kts | 155° |
| 2026-05-06 19:52 | 15.48552 | -60.84985 | 39044 ft | 502 kts | 155° |
| 2026-05-06 19:53 | 15.42437 | -60.81478 | 39044 ft | 503 kts | 155° |
| 2026-05-06 19:53 | 15.36310 | -60.77966 | 39044 ft | 503 kts | 155° |
| 2026-05-06 19:54 | 15.30179 | -60.74454 | 39046 ft | 504 kts | 155° |
| 2026-05-06 19:54 | 15.24038 | -60.70939 | 39041 ft | 504 kts | 154° |
| 2026-05-06 19:55 | 15.17903 | -60.67429 | 39044 ft | 504 kts | 154° |
| 2026-05-06 19:55 | 15.11751 | -60.63912 | 39041 ft | 505 kts | 154° |
| 2026-05-06 19:56 | 15.05600 | -60.60399 | 39042 ft | 505 kts | 154° |
| 2026-05-06 19:56 | 14.99481 | -60.56905 | 39041 ft | 505 kts | 154° |
| 2026-05-06 19:57 | 14.93326 | -60.53394 | 39031 ft | 505 kts | 154° |
| 2026-05-06 19:57 | 14.87164 | -60.49880 | 39037 ft | 505 kts | 154° |
| 2026-05-06 19:58 | 14.81031 | -60.46384 | 38903 ft | 499 kts | 154° |
| 2026-05-06 19:58 | 14.77995 | -60.44655 | 38451 ft | 498 kts | 154° |
| 2026-05-06 19:58 | 14.74951 | -60.42922 | 37785 ft | 501 kts | 154° |
| 2026-05-06 19:59 | 14.71886 | -60.41178 | 37095 ft | 503 kts | 154° |
| 2026-05-06 19:59 | 14.68816 | -60.39432 | 36418 ft | 504 kts | 154° |
| 2026-05-06 19:59 | 14.65738 | -60.37681 | 35751 ft | 505 kts | 154° |
| 2026-05-06 19:59 | 14.62655 | -60.35929 | 35089 ft | 506 kts | 154° |
| 2026-05-06 20:00 | 14.59612 | -60.34200 | 34541 ft | 504 kts | 154° |
| 2026-05-06 20:00 | 14.56573 | -60.32472 | 34486 ft | 491 kts | 154° |
| 2026-05-06 20:00 | 14.53617 | -60.30790 | 34425 ft | 480 kts | 154° |
| 2026-05-06 20:00 | 14.50726 | -60.29146 | 34367 ft | 469 kts | 154° |
| 2026-05-06 20:01 | 14.45113 | -60.25959 | 34052 ft | 454 kts | 154° |
| 2026-05-06 20:01 | 14.42346 | -60.24390 | 33491 ft | 452 kts | 154° |
| 2026-05-06 20:01 | 14.39596 | -60.22832 | 32984 ft | 449 kts | 154° |
| 2026-05-06 20:02 | 14.36865 | -60.21285 | 32471 ft | 446 kts | 154° |
| 2026-05-06 20:02 | 14.34151 | -60.19747 | 31980 ft | 444 kts | 153° |
| 2026-05-06 20:02 | 14.31446 | -60.18215 | 31478 ft | 441 kts | 153° |
| 2026-05-06 20:02 | 14.28754 | -60.16690 | 30996 ft | 439 kts | 153° |
| 2026-05-06 20:03 | 14.26085 | -60.15178 | 30493 ft | 438 kts | 153° |
| 2026-05-06 20:03 | 14.23419 | -60.13669 | 29998 ft | 437 kts | 153° |
| 2026-05-06 20:03 | 14.20761 | -60.12164 | 29427 ft | 435 kts | 153° |
| 2026-05-06 20:03 | 14.18144 | -60.10682 | 28904 ft | 433 kts | 153° |
| 2026-05-06 20:04 | 14.15513 | -60.09193 | 28398 ft | 430 kts | 153° |
| 2026-05-06 20:04 | 14.12891 | -60.07710 | 27896 ft | 428 kts | 153° |
| 2026-05-06 20:04 | 14.10289 | -60.06238 | 27406 ft | 425 kts | 153° |
| 2026-05-06 20:04 | 14.07700 | -60.04775 | 26921 ft | 423 kts | 153° |
| 2026-05-06 20:05 | 14.05119 | -60.03316 | 26440 ft | 421 kts | 153° |
| 2026-05-06 20:05 | 14.02555 | -60.01866 | 25953 ft | 419 kts | 153° |
| 2026-05-06 20:05 | 14.00000 | -60.00423 | 25474 ft | 418 kts | 153° |
| 2026-05-06 20:05 | 13.97453 | -59.98985 | 24987 ft | 417 kts | 153° |
| 2026-05-06 20:06 | 13.94906 | -59.97547 | 24504 ft | 416 kts | 152° |
| 2026-05-06 20:06 | 13.92371 | -59.96116 | 24023 ft | 415 kts | 153° |
| 2026-05-06 20:06 | 13.89870 | -59.94705 | 23548 ft | 414 kts | 152° |
| 2026-05-06 20:06 | 13.87347 | -59.93282 | 23011 ft | 412 kts | 152° |
| 2026-05-06 20:07 | 13.84843 | -59.91868 | 22534 ft | 409 kts | 152° |
| 2026-05-06 20:07 | 13.82346 | -59.90459 | 22052 ft | 406 kts | 152° |
| 2026-05-06 20:07 | 13.79876 | -59.89067 | 21576 ft | 403 kts | 152° |
| 2026-05-06 20:07 | 13.77422 | -59.87683 | 21101 ft | 401 kts | 152° |
| 2026-05-06 20:08 | 13.74981 | -59.86308 | 20631 ft | 399 kts | 152° |
| 2026-05-06 20:08 | 13.72547 | -59.84937 | 20162 ft | 397 kts | 152° |
| 2026-05-06 20:08 | 13.70130 | -59.83576 | 19693 ft | 395 kts | 152° |
| 2026-05-06 20:08 | 13.67722 | -59.82220 | 19209 ft | 394 kts | 151° |
| 2026-05-06 20:09 | 13.65352 | -59.80885 | 18733 ft | 393 kts | 151° |
| 2026-05-06 20:09 | 13.62951 | -59.79534 | 18238 ft | 392 kts | 151° |
| 2026-05-06 20:09 | 13.60561 | -59.78189 | 17671 ft | 391 kts | 150° |
| 2026-05-06 20:09 | 13.58176 | -59.76847 | 17145 ft | 390 kts | 150° |
| 2026-05-06 20:10 | 13.55796 | -59.75510 | 16632 ft | 388 kts | 149° |
| 2026-05-06 20:10 | 13.53432 | -59.74180 | 16144 ft | 386 kts | 150° |
| 2026-05-06 20:10 | 13.51079 | -59.72857 | 15664 ft | 385 kts | 149° |
| 2026-05-06 20:10 | 13.48772 | -59.71563 | 15159 ft | 366 kts | 148° |
| 2026-05-06 20:11 | 13.46604 | -59.70349 | 14706 ft | 343 kts | 148° |
| 2026-05-06 20:11 | 13.44566 | -59.69206 | 14285 ft | 323 kts | 148° |
| 2026-05-06 20:11 | 13.42649 | -59.68130 | 13880 ft | 307 kts | 148° |
| 2026-05-06 20:11 | 13.40817 | -59.67101 | 13483 ft | 298 kts | 148° |
| 2026-05-06 20:12 | 13.39012 | -59.66083 | 13097 ft | 303 kts | 147° |
| 2026-05-06 20:12 | 13.37136 | -59.65024 | 12713 ft | 311 kts | 147° |
| 2026-05-06 20:12 | 13.35226 | -59.63948 | 12289 ft | 315 kts | 148° |
| 2026-05-06 20:12 | 13.33308 | -59.62870 | 11890 ft | 315 kts | 149° |
| 2026-05-06 20:13 | 13.31382 | -59.61788 | 11492 ft | 316 kts | 149° |
| 2026-05-06 20:13 | 13.29447 | -59.60702 | 11079 ft | 316 kts | 149° |
| 2026-05-06 20:13 | 13.27511 | -59.59617 | 10636 ft | 317 kts | 149° |
| 2026-05-06 20:13 | 13.25571 | -59.58528 | 10234 ft | 316 kts | 150° |
| 2026-05-06 20:14 | 13.23671 | -59.57464 | 10158 ft | 304 kts | 149° |
| 2026-05-06 20:14 | 13.21882 | -59.56463 | 9983 ft | 280 kts | 149° |
| 2026-05-06 20:14 | 13.20168 | -59.55603 | 9263 ft | 273 kts | 162° |
| 2026-05-06 20:14 | 13.18269 | -59.55587 | 8396 ft | 279 kts | 194° |
| 2026-05-06 20:15 | 13.16547 | -59.56483 | 7682 ft | 278 kts | 213° |
| 2026-05-06 20:15 | 13.15138 | -59.57790 | 7006 ft | 276 kts | 224° |
| 2026-05-06 20:15 | 13.13860 | -59.59251 | 6323 ft | 272 kts | 227° |
| 2026-05-06 20:15 | 13.12618 | -59.60709 | 5565 ft | 272 kts | 226° |
| 2026-05-06 20:16 | 13.11359 | -59.62163 | 4799 ft | 274 kts | 226° |
| 2026-05-06 20:16 | 13.10108 | -59.63582 | 4399 ft | 258 kts | 224° |
| 2026-05-06 20:16 | 13.08706 | -59.64554 | 4113 ft | 233 kts | 192° |
| 2026-05-06 20:16 | 13.07188 | -59.64559 | 3989 ft | 210 kts | 156° |
| 2026-05-06 20:17 | 13.06065 | -59.63775 | 3942 ft | 186 kts | 128° |
| 2026-05-06 20:17 | 13.05446 | -59.62698 | 3648 ft | 171 kts | 109° |
| 2026-05-06 20:17 | 13.05183 | -59.61547 | 3167 ft | 161 kts | 97° |
| 2026-05-06 20:17 | 13.05078 | -59.60420 | 2676 ft | 152 kts | 91° |
| 2026-05-06 20:18 | 13.05151 | -59.59378 | 2252 ft | 143 kts | 82° |
| 2026-05-06 20:18 | 13.05290 | -59.58417 | 1847 ft | 131 kts | 81° |
| 2026-05-06 20:18 | 13.05441 | -59.57557 | 1749 ft | 129 kts | 79° |
| 2026-05-06 20:18 | 13.05640 | -59.56635 | 1510 ft | 130 kts | 78° |
| 2026-05-06 20:19 | 13.05850 | -59.55766 | 1262 ft | 118 kts | 77° |
| 2026-05-06 20:19 | 13.06048 | -59.54953 | 1020 ft | 118 kts | 77° |
| 2026-05-06 20:19 | 13.06229 | -59.54155 | 868 ft | 112 kts | 75° |
| 2026-05-06 20:19 | 13.06430 | -59.53380 | 736 ft | 114 kts | 76° |
| 2026-05-06 20:20 | 13.06648 | -59.52565 | 586 ft | 121 kts | 77° |
| 2026-05-06 20:20 | 13.06843 | -59.51760 | 408 ft | 115 kts | 78° |
| 2026-05-06 20:20 | 13.07037 | -59.50968 | 277 ft | 117 kts | 81° |
| 2026-05-06 20:20 | 13.07239 | -59.50136 | 196 ft | 119 kts | 79° |
| 2026-05-06 20:21 | 13.07416 | -59.49408 | 175 ft | 87 kts | 76° |
| 2026-05-06 20:21 | 13.07501 | -59.49068 | 175 ft | 27 kts | 75° |
| 2026-05-06 20:21 | 13.07565 | -59.48986 | 175 ft | 15 kts | 13° |
| 2026-05-06 20:21 | 13.07660 | -59.49021 | 175 ft | 15 kts | 314° |
| 2026-05-06 20:22 | 13.07758 | -59.49065 | 175 ft | 15 kts | 346° |
| 2026-05-06 20:22 | 13.07786 | -59.49071 | 175 ft | 0 kts | 346° |